createdAt,value
2023-05-02T00:01:41.247Z,10.08
2023-05-02T00:06:43.003Z,10.02
2023-05-02T00:11:44.711Z,10.01
2023-05-02T00:16:46.397Z,9.96
2023-05-02T00:21:49.114Z,9.94
2023-05-02T00:26:50.533Z,9.95
2023-05-02T00:31:55.558Z,9.99
2023-05-02T00:36:57.340Z,9.98
2023-05-02T00:41:59.482Z,10.02
2023-05-02T00:47:01.862Z,9.92
2023-05-02T00:52:03.397Z,9.95
2023-05-02T00:57:04.952Z,9.95
2023-05-02T01:02:15.778Z,9.94
2023-05-02T01:07:47.052Z,9.93
2023-05-02T01:12:58.882Z,9.93
2023-05-02T01:18:03.272Z,9.88
2023-05-02T01:23:14.272Z,9.82
2023-05-02T01:28:38.623Z,9.90
2023-05-02T01:33:40.540Z,9.89
2023-05-02T01:38:44.056Z,9.80
2023-05-02T01:43:47.137Z,9.82
2023-05-02T01:48:50.864Z,9.85
2023-05-02T01:53:53.791Z,9.83
2023-05-02T01:58:56.703Z,9.83
2023-05-02T02:04:00.783Z,9.82
2023-05-02T02:09:03.701Z,9.82
2023-05-02T02:14:12.414Z,9.79
2023-05-02T02:19:15.834Z,9.81
2023-05-02T02:24:21.008Z,9.65
2023-05-02T02:29:22.515Z,9.61
2023-05-02T02:34:24.055Z,9.51
2023-05-02T02:39:46.991Z,9.44
2023-05-02T02:45:26.193Z,9.35
2023-05-02T02:50:32.752Z,9.34
2023-05-02T02:55:37.574Z,9.31
2023-05-02T03:00:39.729Z,9.31
2023-05-02T03:05:43.888Z,9.17
2023-05-02T03:10:45.386Z,9.18
2023-05-02T03:15:53.805Z,9.14
2023-05-02T03:20:55.605Z,9.10
2023-05-02T03:25:57.180Z,9.03
2023-05-02T03:30:58.724Z,8.91
2023-05-02T03:36:00.215Z,8.85
2023-05-02T03:41:01.662Z,8.86
2023-05-02T03:46:08.188Z,8.87
2023-05-02T03:51:10.133Z,8.90
2023-05-02T03:56:11.713Z,8.89
2023-05-02T04:01:17.078Z,8.83
2023-05-02T04:06:18.753Z,8.76
2023-05-02T04:11:20.419Z,8.78
2023-05-02T04:16:22.424Z,8.83
2023-05-02T04:21:24.029Z,8.80
2023-05-02T04:26:25.824Z,8.83
2023-05-02T04:31:27.502Z,8.80
2023-05-02T04:36:29.053Z,8.78
2023-05-02T04:41:30.542Z,8.78
2023-05-02T04:46:32.122Z,8.78
2023-05-02T04:51:33.606Z,8.75
2023-05-02T04:56:34.988Z,8.73
2023-05-02T05:01:36.561Z,8.78
2023-05-02T05:06:38.269Z,8.74
2023-05-02T05:11:39.817Z,8.69
2023-05-02T05:16:41.288Z,8.66
2023-05-02T05:21:42.843Z,8.67
2023-05-02T05:26:44.565Z,8.60
2023-05-02T05:31:46.130Z,8.53
2023-05-02T05:36:47.658Z,8.39
2023-05-02T05:41:49.133Z,8.41
2023-05-02T05:46:50.568Z,8.44
2023-05-02T05:51:52.357Z,8.50
2023-05-02T05:56:54.450Z,8.43
2023-05-02T06:01:55.849Z,8.44
2023-05-02T06:06:57.336Z,8.49
2023-05-02T06:11:58.826Z,8.59
2023-05-02T06:17:00.819Z,8.71
2023-05-02T06:22:02.337Z,8.47
2023-05-02T06:27:03.784Z,8.45
2023-05-02T06:32:06.578Z,8.61
2023-05-02T06:37:08.281Z,8.72
2023-05-02T06:42:09.722Z,8.62
2023-05-02T06:47:11.467Z,8.65
2023-05-02T06:52:12.961Z,8.66
2023-05-02T06:57:14.395Z,8.71
2023-05-02T07:02:15.899Z,8.92
2023-05-02T07:07:18.963Z,8.90
2023-05-02T07:12:20.826Z,9.05
2023-05-02T07:17:22.388Z,9.16
2023-05-02T07:22:23.860Z,9.31
2023-05-02T07:27:25.516Z,9.54
2023-05-02T07:32:27.578Z,9.55
2023-05-02T07:37:34.605Z,9.79
2023-05-02T07:42:36.367Z,9.42
2023-05-02T07:47:37.938Z,8.96
2023-05-02T07:52:39.452Z,8.89
2023-05-02T07:57:41.164Z,8.97
2023-05-02T08:02:42.985Z,8.87
2023-05-02T08:07:44.550Z,9.19
2023-05-02T08:12:46.007Z,9.50
2023-05-02T08:17:47.482Z,9.45
2023-05-02T08:22:49.238Z,9.60
2023-05-02T08:27:50.722Z,10.19
2023-05-02T08:32:52.184Z,10.50
2023-05-02T08:37:53.678Z,9.87
2023-05-02T08:42:55.846Z,10.27
2023-05-02T08:47:58.514Z,10.90
2023-05-02T08:53:00.170Z,10.95
2023-05-02T08:58:03.182Z,11.02
2023-05-02T09:03:40.356Z,11.12
2023-05-02T09:08:43.098Z,10.67
2023-05-02T09:13:48.313Z,10.64
2023-05-02T09:18:55.320Z,10.94
2023-05-02T09:23:59.267Z,10.74
2023-05-02T09:29:03.136Z,11.02
2023-05-02T09:34:17.892Z,11.14
2023-05-02T09:39:29.271Z,11.26
2023-05-02T09:44:38.290Z,10.90
2023-05-02T09:49:42.627Z,10.88
2023-05-02T09:54:46.515Z,11.18
2023-05-02T09:59:56.207Z,11.36
2023-05-02T10:04:59.008Z,11.47
2023-05-02T10:10:01.757Z,11.55
2023-05-02T10:15:04.459Z,11.60
2023-05-02T10:20:07.898Z,11.40
2023-05-02T10:25:10.108Z,11.73
2023-05-02T10:30:13.189Z,12.32
2023-05-02T10:35:16.113Z,12.88
2023-05-02T10:40:18.394Z,12.32
2023-05-02T10:45:36.014Z,12.34
2023-05-02T10:50:51.300Z,12.12
2023-05-02T10:56:21.723Z,13.12
2023-05-02T11:01:29.391Z,13.62
2023-05-02T11:06:34.313Z,13.23
2023-05-02T11:11:45.483Z,13.32
2023-05-02T11:17:02.116Z,14.19
2023-05-02T11:22:27.117Z,13.62
2023-05-02T11:27:31.733Z,13.14
2023-05-02T11:32:45.925Z,13.65
2023-05-02T11:37:54.849Z,13.51
2023-05-02T11:42:58.023Z,13.76
2023-05-02T11:47:59.573Z,13.83
2023-05-02T11:53:01.363Z,13.82
2023-05-02T11:58:02.839Z,13.37
2023-05-02T12:03:04.465Z,14.11
2023-05-02T12:08:05.940Z,14.02
2023-05-02T12:13:08.847Z,13.50
2023-05-02T12:18:12.801Z,14.41
2023-05-02T12:23:14.518Z,14.90
2023-05-02T12:28:19.639Z,13.28
2023-05-02T12:33:21.327Z,14.30
2023-05-02T12:38:23.460Z,14.54
2023-05-02T12:43:24.965Z,14.21
2023-05-02T12:48:28.025Z,14.12
2023-05-02T12:53:43.769Z,13.94
2023-05-02T12:58:47.910Z,14.37
2023-05-02T13:03:51.218Z,14.48
2023-05-02T13:08:52.873Z,14.42
2023-05-02T13:13:54.313Z,13.79
2023-05-02T13:18:55.847Z,14.21
2023-05-02T13:23:58.700Z,13.35
2023-05-02T13:29:00.152Z,13.49
2023-05-02T13:34:01.854Z,13.62
2023-05-02T13:39:04.350Z,13.38
2023-05-02T13:44:05.880Z,13.51
2023-05-02T13:49:07.349Z,13.25
2023-05-02T13:54:08.827Z,12.66
2023-05-02T13:59:11.118Z,13.38
2023-05-02T14:04:13.042Z,13.31
2023-05-02T14:09:15.643Z,12.97
2023-05-02T14:14:17.264Z,13.21
2023-05-02T14:19:18.955Z,12.71
2023-05-02T14:24:20.671Z,12.59
2023-05-02T14:29:22.197Z,13.13
2023-05-02T14:34:26.843Z,12.74
2023-05-02T14:39:28.297Z,12.90
2023-05-02T14:44:30.583Z,13.30
2023-05-02T14:49:31.981Z,12.62
2023-05-02T14:54:33.439Z,13.23
2023-05-02T14:59:36.080Z,13.30
2023-05-02T15:04:37.923Z,12.84
2023-05-02T15:09:39.444Z,12.35
2023-05-02T15:14:40.965Z,12.39
2023-05-02T15:19:42.480Z,12.47
2023-05-02T15:24:44.178Z,12.89
2023-05-02T15:29:45.733Z,12.51
2023-05-02T15:34:47.346Z,12.55
2023-05-02T15:39:50.596Z,12.60
2023-05-02T15:44:54.010Z,12.38
2023-05-02T15:49:55.903Z,12.45
2023-05-02T15:54:58.703Z,12.46
2023-05-02T16:00:00.284Z,12.49
2023-05-02T16:05:01.883Z,12.45
2023-05-02T16:10:03.533Z,11.94
2023-05-02T16:15:06.268Z,12.14
2023-05-02T16:20:08.067Z,12.26
2023-05-02T16:25:09.648Z,12.38
2023-05-02T16:30:11.403Z,11.93
2023-05-02T16:35:13.423Z,11.99
2023-05-02T16:40:15.026Z,11.72
2023-05-02T16:45:16.480Z,11.87
2023-05-02T16:50:17.948Z,12.32
2023-05-02T16:55:19.803Z,12.36
2023-05-02T17:00:21.699Z,12.01
2023-05-02T17:05:23.207Z,12.37
2023-05-02T17:10:24.811Z,12.31
2023-05-02T17:15:26.442Z,13.00
2023-05-02T17:20:27.905Z,13.29
2023-05-02T17:25:30.472Z,12.71
2023-05-02T17:30:32.152Z,12.82
2023-05-02T17:35:34.805Z,12.67
2023-05-02T17:40:38.132Z,12.31
2023-05-02T17:45:41.536Z,12.90
2023-05-02T17:50:43.167Z,11.67
2023-05-02T17:55:44.632Z,12.33
2023-05-02T18:00:46.183Z,11.34
2023-05-02T18:05:47.916Z,11.02
2023-05-02T18:10:49.576Z,11.31
2023-05-02T18:16:01.513Z,10.71
2023-05-02T18:21:03.613Z,10.39
2023-05-02T18:26:11.644Z,10.25
2023-05-02T18:31:20.208Z,10.48
2023-05-02T18:36:27.223Z,10.34
2023-05-02T18:41:28.879Z,9.88
2023-05-02T18:46:30.386Z,9.89
2023-05-02T18:51:31.914Z,9.73
2023-05-02T18:56:36.793Z,9.53
2023-05-02T19:01:38.321Z,9.43
2023-05-02T19:06:40.786Z,9.32
2023-05-02T19:11:42.720Z,9.15
2023-05-02T19:16:44.887Z,8.99
2023-05-02T19:21:48.028Z,8.89
2023-05-02T19:26:49.472Z,8.84
2023-05-02T19:31:51.066Z,8.59
2023-05-02T19:36:52.496Z,8.49
2023-05-02T19:41:53.966Z,8.13
2023-05-02T19:46:55.435Z,8.06
2023-05-02T19:51:56.866Z,7.93
2023-05-02T19:56:58.234Z,7.88
2023-05-02T20:01:59.649Z,7.78
2023-05-02T20:07:01.343Z,7.58
2023-05-02T20:12:03.370Z,7.53
2023-05-02T20:17:05.358Z,7.41
2023-05-02T20:22:06.880Z,7.37
2023-05-02T20:27:08.347Z,7.22
2023-05-02T20:32:09.846Z,7.15
2023-05-02T20:37:12.444Z,6.86
2023-05-02T20:42:15.577Z,6.82
2023-05-02T20:47:17.076Z,6.70
2023-05-02T20:52:18.860Z,6.43
2023-05-02T20:57:20.383Z,6.35
2023-05-02T21:02:22.245Z,6.10
2023-05-02T21:07:23.671Z,5.87
2023-05-02T21:12:25.087Z,5.75
2023-05-02T21:17:26.524Z,5.59
2023-05-02T21:22:27.993Z,5.55
2023-05-02T21:27:29.425Z,5.58
2023-05-02T21:32:30.969Z,5.53
2023-05-02T21:37:32.598Z,5.32
2023-05-02T21:42:34.744Z,5.13
2023-05-02T21:47:36.233Z,5.11
2023-05-02T21:52:37.611Z,5.13
2023-05-02T21:57:40.794Z,4.90
2023-05-02T22:02:42.276Z,4.95
2023-05-02T22:07:43.806Z,4.77
2023-05-02T22:12:46.408Z,4.59
2023-05-02T22:17:48.357Z,4.27
2023-05-02T22:22:49.857Z,4.22
2023-05-02T22:27:52.114Z,4.11
2023-05-02T22:32:53.733Z,4.10
2023-05-02T22:37:55.696Z,4.02
2023-05-02T22:42:57.849Z,4.21
2023-05-02T22:47:59.375Z,4.05
2023-05-02T22:53:03.754Z,3.81
2023-05-02T22:58:05.788Z,3.54
2023-05-02T23:03:07.281Z,3.59
2023-05-02T23:08:08.748Z,3.29
2023-05-02T23:13:10.201Z,3.32
2023-05-02T23:18:11.680Z,3.22
2023-05-02T23:23:13.132Z,3.37
2023-05-02T23:28:14.622Z,3.38
2023-05-02T23:33:16.393Z,3.23
2023-05-02T23:38:18.083Z,3.09
2023-05-02T23:43:21.077Z,2.87
2023-05-02T23:48:22.600Z,2.70
2023-05-02T23:53:24.107Z,2.77
2023-05-02T23:58:25.545Z,2.70
